createdAt,value
2019-03-26T00:00:55.637Z,3.63
2019-03-26T00:03:25.992Z,3.37
2019-03-26T00:05:56.322Z,3.07
2019-03-26T00:08:26.609Z,1.93
2019-03-26T00:10:56.895Z,3.33
2019-03-26T00:13:27.084Z,2.03
2019-03-26T00:15:57.407Z,3.67
2019-03-26T00:18:27.756Z,2.13
2019-03-26T00:20:58.468Z,2.13
2019-03-26T00:23:28.692Z,2.43
2019-03-26T00:25:59.012Z,2.60
2019-03-26T00:28:29.820Z,2.53
2019-03-26T00:31:00.113Z,3.57
2019-03-26T00:33:36.259Z,1.13
2019-03-26T00:36:02.314Z,2.50
2019-03-26T00:38:32.599Z,2.63
2019-03-26T00:41:03.008Z,2.77
2019-03-26T00:43:33.228Z,1.33
2019-03-26T00:46:03.560Z,2.77
2019-03-26T00:48:33.984Z,2.77
2019-03-26T00:51:04.307Z,3.30
2019-03-26T00:53:34.632Z,2.53
2019-03-26T00:56:04.865Z,2.10
2019-03-26T00:58:35.210Z,1.53
2019-03-26T01:01:05.498Z,3.97
2019-03-26T01:03:36.550Z,1.60
2019-03-26T01:06:06.873Z,2.90
2019-03-26T01:08:37.194Z,3.07
2019-03-26T01:11:07.963Z,1.13
2019-03-26T01:13:38.257Z,4.33
2019-03-26T01:16:08.572Z,3.03
2019-03-26T01:18:38.901Z,3.07
2019-03-26T01:21:09.230Z,2.90
2019-03-26T01:23:39.452Z,1.80
2019-03-26T01:26:09.767Z,3.37
2019-03-26T01:28:40.195Z,2.63
2019-03-26T01:31:10.551Z,2.10
2019-03-26T01:33:40.859Z,2.27
2019-03-26T01:36:11.277Z,2.17
2019-03-26T01:38:41.700Z,2.10
2019-03-26T01:41:12.139Z,1.97
2019-03-26T01:43:42.452Z,2.33
2019-03-26T01:46:12.696Z,2.47
2019-03-26T01:48:42.991Z,2.27
2019-03-26T01:51:13.352Z,4.07
2019-03-26T01:53:43.648Z,1.73
2019-03-26T01:56:13.968Z,2.17
2019-03-26T01:58:44.391Z,3.20
2019-03-26T02:01:14.636Z,2.00
2019-03-26T02:03:44.944Z,2.00
2019-03-26T02:06:15.265Z,2.20
2019-03-26T02:08:45.600Z,2.00
2019-03-26T02:11:15.917Z,2.13
2019-03-26T02:13:46.148Z,2.63
2019-03-26T02:16:16.361Z,2.43
2019-03-26T02:18:46.791Z,2.27
2019-03-26T02:21:17.528Z,2.63
2019-03-26T02:23:48.065Z,1.63
2019-03-26T02:26:18.372Z,2.13
2019-03-26T02:28:48.704Z,2.93
2019-03-26T02:31:19.067Z,2.50
2019-03-26T02:33:49.346Z,1.77
2019-03-26T02:36:19.576Z,1.50
2019-03-26T02:38:50.008Z,2.80
2019-03-26T02:41:20.324Z,2.47
2019-03-26T02:43:50.647Z,3.57
2019-03-26T02:46:21.089Z,2.07
2019-03-26T02:48:52.365Z,3.23
2019-03-26T02:51:22.565Z,2.70
2019-03-26T02:53:52.973Z,2.13
2019-03-26T02:56:23.291Z,3.33
2019-03-26T02:58:53.715Z,1.93
2019-03-26T03:01:24.126Z,2.67
2019-03-26T03:03:54.471Z,1.97
2019-03-26T03:06:24.657Z,2.20
2019-03-26T03:08:55.022Z,1.77
2019-03-26T03:11:25.448Z,3.10
2019-03-26T03:13:55.873Z,3.40
2019-03-26T03:16:26.301Z,3.10
2019-03-26T03:18:56.645Z,3.43
2019-03-26T03:21:27.026Z,1.73
2019-03-26T03:23:57.368Z,3.33
2019-03-26T03:26:27.703Z,2.33
2019-03-26T03:28:58.460Z,2.80
2019-03-26T03:31:28.733Z,2.43
2019-03-26T03:33:59.184Z,2.87
2019-03-26T03:36:29.371Z,2.30
2019-03-26T03:38:59.629Z,3.83
2019-03-26T03:41:29.932Z,1.80
2019-03-26T03:44:00.272Z,2.43
2019-03-26T03:46:30.715Z,2.00
2019-03-26T03:49:01.129Z,2.27
2019-03-26T03:51:31.377Z,2.40
2019-03-26T03:54:01.677Z,1.80
2019-03-26T03:56:31.997Z,2.63
2019-03-26T03:59:02.328Z,2.57
2019-03-26T04:01:32.795Z,3.20
2019-03-26T04:04:03.098Z,2.17
2019-03-26T04:06:33.405Z,3.10
2019-03-26T04:09:04.322Z,2.13
2019-03-26T04:11:34.675Z,1.40
2019-03-26T04:14:05.095Z,1.87
2019-03-26T04:16:35.514Z,1.97
2019-03-26T04:19:05.846Z,3.23
2019-03-26T04:21:36.167Z,2.70
2019-03-26T04:24:06.387Z,2.80
2019-03-26T04:26:36.615Z,2.83
2019-03-26T04:29:07.528Z,2.87
2019-03-26T04:31:37.890Z,1.77
2019-03-26T04:34:08.097Z,2.20
2019-03-26T04:36:38.431Z,2.23
2019-03-26T04:39:09.188Z,2.33
2019-03-26T04:41:39.580Z,1.20
2019-03-26T04:44:10.011Z,1.70
2019-03-26T04:46:40.343Z,1.87
2019-03-26T04:49:10.664Z,2.57
2019-03-26T04:51:40.877Z,3.13
2019-03-26T04:54:11.315Z,2.50
2019-03-26T04:56:41.627Z,1.67
2019-03-26T04:59:11.949Z,1.37
2019-03-26T05:01:42.329Z,1.60
2019-03-26T05:04:12.617Z,2.47
2019-03-26T05:06:42.822Z,1.70
2019-03-26T05:09:13.180Z,2.17
2019-03-26T05:11:43.369Z,3.30
2019-03-26T05:14:13.595Z,2.60
2019-03-26T05:16:43.829Z,5.53
2019-03-26T05:19:14.242Z,8.80
2019-03-26T05:21:44.578Z,6.10
2019-03-26T05:24:14.997Z,11.77
2019-03-26T05:26:45.212Z,7.73
2019-03-26T05:29:16.378Z,11.00
2019-03-26T05:31:46.790Z,10.13
2019-03-26T05:34:16.985Z,16.57
2019-03-26T05:36:51.694Z,16.27
2019-03-26T05:39:19.360Z,18.37
2019-03-26T05:41:49.667Z,12.67
2019-03-26T05:44:19.988Z,13.43
2019-03-26T05:46:52.627Z,14.67
2019-03-26T05:49:22.959Z,13.77
2019-03-26T05:51:53.272Z,11.00
2019-03-26T05:54:23.561Z,10.63
2019-03-26T05:56:53.818Z,6.40
2019-03-26T05:59:24.113Z,8.60
2019-03-26T06:01:54.512Z,5.77
2019-03-26T06:04:24.711Z,8.03
2019-03-26T06:07:04.697Z,7.77
2019-03-26T06:09:27.007Z,6.27
2019-03-26T06:11:57.192Z,5.10
2019-03-26T06:14:27.551Z,8.17
2019-03-26T06:16:57.969Z,5.23
2019-03-26T06:19:28.424Z,7.80
2019-03-26T06:21:58.645Z,6.17
2019-03-26T06:24:29.116Z,4.33
2019-03-26T06:26:59.300Z,6.97
2019-03-26T06:29:29.628Z,4.97
2019-03-26T06:32:00.075Z,6.70
2019-03-26T06:34:30.466Z,5.00
2019-03-26T06:37:00.791Z,4.87
2019-03-26T06:39:31.208Z,5.87
2019-03-26T06:42:01.523Z,4.33
2019-03-26T06:44:32.071Z,4.33
2019-03-26T06:47:02.523Z,6.17
2019-03-26T06:49:33.772Z,4.77
2019-03-26T06:52:04.043Z,5.90
2019-03-26T06:54:34.637Z,4.43
2019-03-26T06:57:05.009Z,3.70
2019-03-26T06:59:35.442Z,3.33
2019-03-26T07:02:06.111Z,3.03
2019-03-26T07:04:36.573Z,3.93
2019-03-26T07:07:07.207Z,2.90
2019-03-26T07:09:37.635Z,2.50
2019-03-26T07:12:08.080Z,1.83
2019-03-26T07:14:38.279Z,2.87
2019-03-26T07:17:08.837Z,5.37
2019-03-26T07:19:39.245Z,2.90
2019-03-26T07:22:09.768Z,2.50
2019-03-26T07:24:40.004Z,3.13
2019-03-26T07:27:10.304Z,3.33
2019-03-26T07:29:40.769Z,2.67
2019-03-26T07:32:11.246Z,3.60
2019-03-26T07:34:41.583Z,2.50
2019-03-26T07:37:11.935Z,3.40
2019-03-26T07:39:42.357Z,2.73
2019-03-26T07:42:12.786Z,3.17
2019-03-26T07:44:45.330Z,5.20
2019-03-26T07:47:15.059Z,3.13
2019-03-26T07:49:45.387Z,2.97
2019-03-26T07:52:15.783Z,3.47
2019-03-26T07:54:46.043Z,2.20
2019-03-26T07:57:16.456Z,3.13
2019-03-26T07:59:46.780Z,2.97
2019-03-26T08:02:17.068Z,2.03
2019-03-26T08:04:47.504Z,1.57
2019-03-26T08:07:17.796Z,2.27
2019-03-26T08:09:47.969Z,2.97
2019-03-26T08:12:18.192Z,3.07
2019-03-26T08:14:48.491Z,2.97
2019-03-26T08:17:18.891Z,2.53
2019-03-26T08:19:49.186Z,2.40
2019-03-26T08:22:19.458Z,1.97
2019-03-26T08:24:49.738Z,2.10
2019-03-26T08:27:20.035Z,3.83
2019-03-26T08:29:50.483Z,4.30
2019-03-26T08:32:20.840Z,2.77
2019-03-26T08:34:51.120Z,1.90
2019-03-26T08:37:21.460Z,1.83
2019-03-26T08:39:51.773Z,1.37
2019-03-26T08:42:22.053Z,3.30
2019-03-26T08:44:52.252Z,1.80
2019-03-26T08:47:22.593Z,2.43
2019-03-26T08:49:52.870Z,2.60
2019-03-26T08:52:23.149Z,2.83
2019-03-26T08:54:53.911Z,2.33
2019-03-26T08:57:24.497Z,3.43
2019-03-26T08:59:54.788Z,2.23
2019-03-26T09:02:25.209Z,3.03
2019-03-26T09:04:55.529Z,2.17
2019-03-26T09:07:25.931Z,1.67
2019-03-26T09:09:56.274Z,1.37
2019-03-26T09:12:26.857Z,1.50
2019-03-26T09:14:57.399Z,1.10
2019-03-26T09:17:27.656Z,1.67
2019-03-26T09:19:57.919Z,1.47
2019-03-26T09:22:28.204Z,1.40
2019-03-26T09:24:58.540Z,1.93
2019-03-26T09:27:28.819Z,1.97
2019-03-26T09:29:59.246Z,1.17
2019-03-26T09:32:29.668Z,1.23
2019-03-26T09:35:00.044Z,0.90
2019-03-26T09:37:30.379Z,1.90
2019-03-26T09:40:00.792Z,2.10
2019-03-26T09:42:31.112Z,1.17
2019-03-26T09:45:01.408Z,1.57
2019-03-26T09:47:31.728Z,1.70
2019-03-26T09:50:01.981Z,1.70
2019-03-26T09:52:32.227Z,1.43
2019-03-26T09:55:02.519Z,0.90
2019-03-26T09:57:32.953Z,1.50
2019-03-26T10:00:03.376Z,1.23
2019-03-26T10:02:33.591Z,0.90
2019-03-26T10:05:03.863Z,1.23
2019-03-26T10:07:34.259Z,1.30
2019-03-26T10:10:04.474Z,1.03
2019-03-26T10:12:34.840Z,1.43
2019-03-26T10:15:05.323Z,2.63
2019-03-26T10:17:35.645Z,0.87
2019-03-26T10:20:06.581Z,2.80
2019-03-26T10:22:36.914Z,1.73
2019-03-26T10:25:10.453Z,0.90
2019-03-26T10:27:39.160Z,0.70
2019-03-26T10:30:10.980Z,1.20
2019-03-26T10:32:41.428Z,1.53
2019-03-26T10:35:11.674Z,1.73
2019-03-26T10:37:42.145Z,1.80
2019-03-26T10:40:14.864Z,1.40
2019-03-26T10:42:45.156Z,1.43
2019-03-26T10:45:15.403Z,0.90
2019-03-26T10:47:45.900Z,1.20
2019-03-26T10:50:16.208Z,0.97
2019-03-26T10:52:46.536Z,0.93
2019-03-26T10:55:16.772Z,1.80
2019-03-26T10:57:47.080Z,1.27
2019-03-26T11:00:18.601Z,0.57
2019-03-26T11:02:48.813Z,0.90
2019-03-26T11:05:19.180Z,1.63
2019-03-26T11:07:49.685Z,1.00
2019-03-26T11:10:20.059Z,0.87
2019-03-26T11:12:50.276Z,0.50
2019-03-26T11:15:20.580Z,0.67
2019-03-26T11:17:50.975Z,1.27
2019-03-26T11:20:21.229Z,0.60
2019-03-26T11:22:51.593Z,1.00
2019-03-26T11:25:21.852Z,0.73
2019-03-26T11:27:52.316Z,0.40
2019-03-26T11:30:22.635Z,1.43
2019-03-26T11:32:53.119Z,0.80
2019-03-26T11:35:24.241Z,0.70
2019-03-26T11:37:55.275Z,1.33
2019-03-26T11:40:27.311Z,0.50
2019-03-26T11:42:58.085Z,0.73
2019-03-26T11:45:28.430Z,0.60
2019-03-26T11:47:58.770Z,0.40
2019-03-26T11:50:29.055Z,1.80
2019-03-26T11:52:59.454Z,0.73
2019-03-26T11:55:29.811Z,0.67
2019-03-26T11:58:00.091Z,0.90
2019-03-26T12:00:35.540Z,1.00
2019-03-26T12:03:05.799Z,0.80
2019-03-26T12:05:35.998Z,0.70
2019-03-26T12:08:06.451Z,1.07
2019-03-26T12:10:36.856Z,0.60
2019-03-26T12:13:07.169Z,0.53
2019-03-26T12:15:37.607Z,0.50
2019-03-26T12:18:08.007Z,0.43
2019-03-26T12:20:38.351Z,1.27
2019-03-26T12:23:08.995Z,0.70
2019-03-26T12:25:39.418Z,0.40
2019-03-26T12:28:09.796Z,0.30
2019-03-26T12:30:40.149Z,0.50
2019-03-26T12:33:10.491Z,0.37
2019-03-26T12:35:40.861Z,0.93
2019-03-26T12:38:21.307Z,0.30
2019-03-26T12:40:51.593Z,0.30
2019-03-26T12:43:21.903Z,0.77
2019-03-26T12:45:52.227Z,0.80
2019-03-26T12:48:22.564Z,0.33
2019-03-26T12:50:52.807Z,0.63
2019-03-26T12:53:23.131Z,0.23
2019-03-26T12:55:53.356Z,0.40
2019-03-26T12:58:31.796Z,0.47
2019-03-26T13:00:55.608Z,0.20
2019-03-26T13:03:25.796Z,0.93
2019-03-26T13:05:55.973Z,0.40
2019-03-26T13:08:26.241Z,0.80
2019-03-26T13:10:57.516Z,0.30
2019-03-26T13:13:27.855Z,0.33
2019-03-26T13:15:58.175Z,0.70
2019-03-26T13:18:28.461Z,0.40
2019-03-26T13:20:58.976Z,0.27
2019-03-26T13:23:29.466Z,0.20
2019-03-26T13:25:59.798Z,1.23
2019-03-26T13:28:30.338Z,0.67
2019-03-26T13:31:00.823Z,0.20
2019-03-26T13:33:31.284Z,0.30
2019-03-26T13:36:02.000Z,0.47
2019-03-26T13:38:32.339Z,0.33
2019-03-26T13:41:02.584Z,0.37
2019-03-26T13:43:32.931Z,2.60
2019-03-26T13:46:03.112Z,0.60
2019-03-26T13:48:33.507Z,0.73
2019-03-26T13:51:03.831Z,0.30
2019-03-26T13:53:34.131Z,0.37
2019-03-26T13:56:04.348Z,0.67
2019-03-26T13:58:34.628Z,0.30
2019-03-26T14:01:05.232Z,1.27
2019-03-26T14:03:35.564Z,1.07
2019-03-26T14:06:05.884Z,0.60
2019-03-26T14:08:36.220Z,0.30
2019-03-26T14:11:06.543Z,0.30
2019-03-26T14:13:36.860Z,0.83
2019-03-26T14:16:07.080Z,0.20
2019-03-26T14:18:37.371Z,0.40
2019-03-26T14:21:07.629Z,0.80
2019-03-26T14:23:37.851Z,0.70
2019-03-26T14:26:08.732Z,0.20
2019-03-26T14:28:38.975Z,0.70
2019-03-26T14:31:09.324Z,0.50
2019-03-26T14:33:39.566Z,0.50
2019-03-26T14:36:10.069Z,0.40
2019-03-26T14:38:40.407Z,0.30
2019-03-26T14:41:10.597Z,0.40
2019-03-26T14:43:40.849Z,0.20
2019-03-26T14:46:11.175Z,0.60
2019-03-26T14:48:41.573Z,0.20
2019-03-26T14:51:11.907Z,0.30
2019-03-26T14:53:42.200Z,0.30
2019-03-26T14:56:12.395Z,0.30
2019-03-26T14:58:43.112Z,0.30
2019-03-26T15:01:13.323Z,0.40
2019-03-26T15:03:43.760Z,0.40
2019-03-26T15:06:14.098Z,0.20
2019-03-26T15:08:44.609Z,1.07
2019-03-26T15:11:14.949Z,0.30
2019-03-26T15:13:45.266Z,0.43
2019-03-26T15:16:15.506Z,0.70
2019-03-26T15:18:45.759Z,0.60
2019-03-26T15:21:16.024Z,0.20
2019-03-26T15:23:46.353Z,0.20
2019-03-26T15:26:16.688Z,0.20
2019-03-26T15:28:47.004Z,0.33
2019-03-26T15:31:17.377Z,0.77
2019-03-26T15:33:47.668Z,0.40
2019-03-26T15:36:18.040Z,0.70
2019-03-26T15:38:48.518Z,0.33
2019-03-26T15:41:21.884Z,0.23
2019-03-26T15:43:50.703Z,0.20
2019-03-26T15:46:21.035Z,0.27
2019-03-26T15:48:51.359Z,0.40
2019-03-26T15:51:21.576Z,0.73
2019-03-26T15:53:51.776Z,0.30
2019-03-26T15:56:21.999Z,0.43
2019-03-26T15:58:52.537Z,0.20
2019-03-26T16:01:24.522Z,1.60
2019-03-26T16:03:54.612Z,0.57
2019-03-26T16:06:25.006Z,0.27
2019-03-26T16:08:55.229Z,0.30
2019-03-26T16:11:35.822Z,0.40
2019-03-26T16:13:59.806Z,0.63
2019-03-26T16:16:30.159Z,0.53
2019-03-26T16:19:00.488Z,0.60
2019-03-26T16:21:30.774Z,0.30
2019-03-26T16:24:01.069Z,1.00
2019-03-26T16:26:31.240Z,2.73
2019-03-26T16:29:01.623Z,12.80
2019-03-26T16:31:31.848Z,8.23
2019-03-26T16:34:02.058Z,4.83
2019-03-26T16:36:33.305Z,4.33
2019-03-26T16:39:04.699Z,4.33
2019-03-26T16:41:48.128Z,2.17
2019-03-26T16:44:06.939Z,3.10
2019-03-26T16:46:37.324Z,5.43
2019-03-26T16:49:07.673Z,4.13
2019-03-26T16:51:37.888Z,1.90
2019-03-26T16:54:08.164Z,0.60
2019-03-26T16:56:38.457Z,5.37
2019-03-26T16:59:08.717Z,4.33
2019-03-26T17:01:39.160Z,3.53
2019-03-26T17:04:09.360Z,2.10
2019-03-26T17:06:39.619Z,9.10
2019-03-26T17:09:10.136Z,7.17
2019-03-26T17:11:40.435Z,5.90
2019-03-26T17:14:10.869Z,11.93
2019-03-26T17:16:41.103Z,2.73
2019-03-26T17:19:11.382Z,4.57
2019-03-26T17:21:41.636Z,4.53
2019-03-26T17:24:11.908Z,2.77
2019-03-26T17:26:42.197Z,3.67
2019-03-26T17:29:14.728Z,6.07
2019-03-26T17:31:44.993Z,3.43
2019-03-26T17:34:15.303Z,3.90
2019-03-26T17:36:45.540Z,7.83
2019-03-26T17:39:15.869Z,8.50
2019-03-26T17:41:46.400Z,5.97
2019-03-26T17:44:16.826Z,8.43
2019-03-26T17:46:47.080Z,6.37
2019-03-26T17:49:17.325Z,4.63
2019-03-26T17:51:47.595Z,3.10
2019-03-26T17:54:17.847Z,3.17
2019-03-26T17:56:48.071Z,2.43
2019-03-26T17:59:18.533Z,4.00
2019-03-26T18:01:48.767Z,3.37
2019-03-26T18:04:19.111Z,1.67
2019-03-26T18:06:49.420Z,1.43
2019-03-26T18:09:19.751Z,1.47
2019-03-26T18:11:50.071Z,1.80
2019-03-26T18:14:20.404Z,3.17
2019-03-26T18:16:50.697Z,1.00
2019-03-26T18:19:39.687Z,4.40
2019-03-26T18:22:10.085Z,4.33
2019-03-26T18:24:40.296Z,4.07
2019-03-26T18:27:10.513Z,6.80
2019-03-26T18:29:40.893Z,6.27
2019-03-26T18:32:11.097Z,3.27
2019-03-26T18:34:42.444Z,2.47
2019-03-26T18:37:12.685Z,2.90
2019-03-26T18:39:44.741Z,5.03
2019-03-26T18:42:15.053Z,2.43
2019-03-26T18:44:45.274Z,2.53
2019-03-26T18:47:15.532Z,9.87
2019-03-26T18:49:45.764Z,4.40
2019-03-26T18:52:15.996Z,5.13
2019-03-26T18:54:46.231Z,4.20
2019-03-26T18:57:16.420Z,9.97
2019-03-26T18:59:46.679Z,5.47
2019-03-26T19:02:16.876Z,5.80
2019-03-26T19:04:47.133Z,6.47
2019-03-26T19:07:17.377Z,5.10
2019-03-26T19:09:47.643Z,9.83
2019-03-26T19:12:17.845Z,10.23
2019-03-26T19:14:48.112Z,6.63
2019-03-26T19:17:18.288Z,6.07
2019-03-26T19:19:48.492Z,4.43
2019-03-26T19:22:18.979Z,4.73
2019-03-26T19:24:49.402Z,5.03
2019-03-26T19:27:19.662Z,4.40
2019-03-26T19:29:49.898Z,5.70
2019-03-26T19:32:20.256Z,4.23
2019-03-26T19:34:50.460Z,6.47
2019-03-26T19:37:20.998Z,4.47
2019-03-26T19:39:51.213Z,2.03
2019-03-26T19:42:21.403Z,3.93
2019-03-26T19:44:51.696Z,4.83
2019-03-26T19:47:21.922Z,5.03
2019-03-26T19:49:52.142Z,7.87
2019-03-26T19:52:22.544Z,5.43
2019-03-26T19:54:52.769Z,3.40
2019-03-26T19:57:23.036Z,4.37
2019-03-26T19:59:53.239Z,4.37
2019-03-26T20:02:23.511Z,5.67
2019-03-26T20:04:53.737Z,4.13
2019-03-26T20:07:24.045Z,3.33
2019-03-26T20:09:54.260Z,2.30
2019-03-26T20:12:24.524Z,2.10
2019-03-26T20:14:54.723Z,4.13
2019-03-26T20:17:24.995Z,2.30
2019-03-26T20:19:55.214Z,1.03
2019-03-26T20:22:25.504Z,3.47
2019-03-26T20:24:57.730Z,0.87
2019-03-26T20:27:27.931Z,2.23
2019-03-26T20:29:58.184Z,2.00
2019-03-26T20:32:28.633Z,6.03
2019-03-26T20:34:58.948Z,4.60
2019-03-26T20:37:29.272Z,6.50
2019-03-26T20:39:59.581Z,2.40
2019-03-26T20:42:29.908Z,2.37
2019-03-26T20:45:00.149Z,3.90
2019-03-26T20:47:30.555Z,2.27
2019-03-26T20:50:00.776Z,2.53
2019-03-26T20:52:30.966Z,2.93
2019-03-26T20:55:01.175Z,3.30
2019-03-26T20:57:31.465Z,3.57
2019-03-26T21:00:01.713Z,7.57
2019-03-26T21:02:31.908Z,3.67
2019-03-26T21:05:02.215Z,2.77
2019-03-26T21:07:32.640Z,3.10
2019-03-26T21:10:02.974Z,3.93
2019-03-26T21:12:33.286Z,4.73
2019-03-26T21:15:03.509Z,3.60
2019-03-26T21:17:33.952Z,2.50
2019-03-26T21:20:04.364Z,2.17
2019-03-26T21:22:35.117Z,3.20
2019-03-26T21:25:05.412Z,3.53
2019-03-26T21:27:35.643Z,5.53
2019-03-26T21:30:11.594Z,6.27
2019-03-26T21:32:39.282Z,5.97
2019-03-26T21:35:09.588Z,4.87
2019-03-26T21:37:40.188Z,3.10
2019-03-26T21:40:10.549Z,2.33
2019-03-26T21:42:41.111Z,3.00
2019-03-26T21:45:11.340Z,4.10
2019-03-26T21:47:41.640Z,5.40
2019-03-26T21:50:11.945Z,2.30
2019-03-26T21:52:42.276Z,1.33
2019-03-26T21:55:13.483Z,2.27
2019-03-26T21:57:44.147Z,1.77
2019-03-26T22:00:14.362Z,1.57
2019-03-26T22:02:44.557Z,2.63
2019-03-26T22:05:14.733Z,2.57
2019-03-26T22:07:45.028Z,2.97
2019-03-26T22:10:15.468Z,2.67
2019-03-26T22:12:46.049Z,1.33
2019-03-26T22:15:16.338Z,2.90
2019-03-26T22:17:46.743Z,1.43
2019-03-26T22:20:17.095Z,2.87
2019-03-26T22:22:47.460Z,0.60
2019-03-26T22:25:17.714Z,1.27
2019-03-26T22:27:48.038Z,2.27
2019-03-26T22:30:19.558Z,2.00
2019-03-26T22:32:49.915Z,1.23
2019-03-26T22:35:20.101Z,1.90
2019-03-26T22:37:50.368Z,1.83
2019-03-26T22:40:20.545Z,1.57
2019-03-26T22:42:50.798Z,1.17
2019-03-26T22:45:21.009Z,0.80
2019-03-26T22:47:51.374Z,0.97
2019-03-26T22:50:21.687Z,0.53
2019-03-26T22:52:51.892Z,1.27
2019-03-26T22:55:22.116Z,1.93
2019-03-26T22:57:52.540Z,0.90
2019-03-26T23:00:22.864Z,0.63
2019-03-26T23:02:53.331Z,1.27
2019-03-26T23:05:23.593Z,1.43
2019-03-26T23:07:53.910Z,1.17
2019-03-26T23:10:24.285Z,0.63
2019-03-26T23:12:54.596Z,1.07
2019-03-26T23:15:25.435Z,1.93
2019-03-26T23:17:55.858Z,2.73
2019-03-26T23:20:26.159Z,1.43
2019-03-26T23:22:56.830Z,1.07
2019-03-26T23:25:27.180Z,1.17
2019-03-26T23:27:57.561Z,1.23
2019-03-26T23:30:27.884Z,1.87
2019-03-26T23:32:58.259Z,1.33
2019-03-26T23:35:28.444Z,2.33
2019-03-26T23:37:58.863Z,1.30
2019-03-26T23:40:29.083Z,1.00
2019-03-26T23:42:59.299Z,1.40
2019-03-26T23:45:29.495Z,1.30
2019-03-26T23:47:59.848Z,2.00
2019-03-26T23:50:30.173Z,0.73
2019-03-26T23:53:00.403Z,0.67
2019-03-26T23:55:30.598Z,1.07
2019-03-26T23:58:01.147Z,1.57
